sensor_id;sensor_type;location;lat;lon;timestamp;temperature;humidity
23475;DHT22;11910;52.086;21.066;2023-09-19T00:01:33;18.70;99.90
23475;DHT22;11910;52.086;21.066;2023-09-19T00:03:59;18.70;99.90
23475;DHT22;11910;52.086;21.066;2023-09-19T00:06:28;18.70;99.90
23475;DHT22;11910;52.086;21.066;2023-09-19T00:08:57;18.70;99.90
23475;DHT22;11910;52.086;21.066;2023-09-19T00:11:24;18.70;99.90
23475;DHT22;11910;52.086;21.066;2023-09-19T00:13:51;18.70;99.90
23475;DHT22;11910;52.086;21.066;2023-09-19T00:16:17;18.80;99.90
23475;DHT22;11910;52.086;21.066;2023-09-19T00:18:44;18.70;99.90
23475;DHT22;11910;52.086;21.066;2023-09-19T00:21:10;18.80;99.90
23475;DHT22;11910;52.086;21.066;2023-09-19T00:23:35;18.80;99.90
23475;DHT22;11910;52.086;21.066;2023-09-19T00:26:01;18.80;99.90
23475;DHT22;11910;52.086;21.066;2023-09-19T00:28:27;18.80;99.90
23475;DHT22;11910;52.086;21.066;2023-09-19T00:30:53;18.80;99.90
23475;DHT22;11910;52.086;21.066;2023-09-19T00:33:20;18.70;99.90
23475;DHT22;11910;52.086;21.066;2023-09-19T00:35:50;18.80;99.90
23475;DHT22;11910;52.086;21.066;2023-09-19T00:38:17;18.70;99.90
23475;DHT22;11910;52.086;21.066;2023-09-19T00:40:47;18.70;99.90
23475;DHT22;11910;52.086;21.066;2023-09-19T00:43:12;18.70;99.90
23475;DHT22;11910;52.086;21.066;2023-09-19T00:45:39;18.70;99.90
23475;DHT22;11910;52.086;21.066;2023-09-19T00:48:08;18.70;99.90
23475;DHT22;11910;52.086;21.066;2023-09-19T00:50:35;18.70;99.90
23475;DHT22;11910;52.086;21.066;2023-09-19T00:53:01;18.70;99.90
23475;DHT22;11910;52.086;21.066;2023-09-19T00:55:28;18.70;99.90
23475;DHT22;11910;52.086;21.066;2023-09-19T00:57:56;18.60;99.90
23475;DHT22;11910;52.086;21.066;2023-09-19T01:00:22;18.60;99.90
23475;DHT22;11910;52.086;21.066;2023-09-19T01:02:49;18.60;99.90
23475;DHT22;11910;52.086;21.066;2023-09-19T01:05:14;18.60;99.90
23475;DHT22;11910;52.086;21.066;2023-09-19T01:07:41;18.70;99.90
23475;DHT22;11910;52.086;21.066;2023-09-19T01:10:08;18.70;99.90
23475;DHT22;11910;52.086;21.066;2023-09-19T01:13:05;18.70;99.90
23475;DHT22;11910;52.086;21.066;2023-09-19T01:15:38;18.70;99.90
23475;DHT22;11910;52.086;21.066;2023-09-19T01:21:36;18.60;99.90
23475;DHT22;11910;52.086;21.066;2023-09-19T01:27:33;18.70;99.90
23475;DHT22;11910;52.086;21.066;2023-09-19T01:30:14;18.70;99.90
23475;DHT22;11910;52.086;21.066;2023-09-19T01:32:40;18.70;99.90
23475;DHT22;11910;52.086;21.066;2023-09-19T01:35:07;18.60;99.90
23475;DHT22;11910;52.086;21.066;2023-09-19T01:37:37;18.60;99.90
23475;DHT22;11910;52.086;21.066;2023-09-19T01:48:04;18.60;99.90
23475;DHT22;11910;52.086;21.066;2023-09-19T01:50:38;18.60;99.90
23475;DHT22;11910;52.086;21.066;2023-09-19T01:53:27;18.60;99.90
23475;DHT22;11910;52.086;21.066;2023-09-19T01:55:57;18.60;99.90
23475;DHT22;11910;52.086;21.066;2023-09-19T01:58:34;18.60;99.90
23475;DHT22;11910;52.086;21.066;2023-09-19T02:01:01;18.70;99.90
23475;DHT22;11910;52.086;21.066;2023-09-19T02:03:27;18.70;99.90
23475;DHT22;11910;52.086;21.066;2023-09-19T02:05:54;18.70;99.90
23475;DHT22;11910;52.086;21.066;2023-09-19T02:08:21;18.70;99.90
23475;DHT22;11910;52.086;21.066;2023-09-19T02:10:51;18.80;99.90
23475;DHT22;11910;52.086;21.066;2023-09-19T02:13:19;18.80;99.90
23475;DHT22;11910;52.086;21.066;2023-09-19T02:15:45;18.80;99.90
23475;DHT22;11910;52.086;21.066;2023-09-19T02:18:12;18.70;99.90
23475;DHT22;11910;52.086;21.066;2023-09-19T02:20:39;18.70;99.90
23475;DHT22;11910;52.086;21.066;2023-09-19T02:23:05;18.70;99.90
23475;DHT22;11910;52.086;21.066;2023-09-19T02:25:30;18.70;99.90
23475;DHT22;11910;52.086;21.066;2023-09-19T02:27:57;18.70;99.90
23475;DHT22;11910;52.086;21.066;2023-09-19T02:30:24;18.60;99.90
23475;DHT22;11910;52.086;21.066;2023-09-19T02:32:51;18.60;99.90
23475;DHT22;11910;52.086;21.066;2023-09-19T02:35:17;18.50;99.90
23475;DHT22;11910;52.086;21.066;2023-09-19T02:37:45;18.40;99.90
23475;DHT22;11910;52.086;21.066;2023-09-19T02:40:11;18.40;99.90
23475;DHT22;11910;52.086;21.066;2023-09-19T02:42:47;18.40;99.90
23475;DHT22;11910;52.086;21.066;2023-09-19T02:45:17;18.50;99.90
23475;DHT22;11910;52.086;21.066;2023-09-19T02:47:44;18.40;99.90
23475;DHT22;11910;52.086;21.066;2023-09-19T02:50:09;18.40;99.90
23475;DHT22;11910;52.086;21.066;2023-09-19T02:52:41;18.50;99.90
23475;DHT22;11910;52.086;21.066;2023-09-19T02:55:09;18.40;99.90
23475;DHT22;11910;52.086;21.066;2023-09-19T02:57:35;18.40;99.90
23475;DHT22;11910;52.086;21.066;2023-09-19T03:00:09;18.40;99.90
23475;DHT22;11910;52.086;21.066;2023-09-19T03:02:36;18.40;99.90
23475;DHT22;11910;52.086;21.066;2023-09-19T03:05:02;18.40;99.90
23475;DHT22;11910;52.086;21.066;2023-09-19T03:07:29;18.30;99.90
23475;DHT22;11910;52.086;21.066;2023-09-19T03:09:54;18.30;99.90
23475;DHT22;11910;52.086;21.066;2023-09-19T03:12:20;18.30;99.90
23475;DHT22;11910;52.086;21.066;2023-09-19T03:14:46;18.20;99.90
23475;DHT22;11910;52.086;21.066;2023-09-19T03:17:11;18.10;99.90
23475;DHT22;11910;52.086;21.066;2023-09-19T03:19:39;18.10;99.90
23475;DHT22;11910;52.086;21.066;2023-09-19T03:22:05;18.10;99.90
23475;DHT22;11910;52.086;21.066;2023-09-19T03:24:31;18.00;99.90
23475;DHT22;11910;52.086;21.066;2023-09-19T03:26:57;18.10;99.90
23475;DHT22;11910;52.086;21.066;2023-09-19T03:29:23;18.10;99.90
23475;DHT22;11910;52.086;21.066;2023-09-19T03:31:48;18.10;99.90
23475;DHT22;11910;52.086;21.066;2023-09-19T03:34:14;18.10;99.90
23475;DHT22;11910;52.086;21.066;2023-09-19T03:36:39;18.10;99.90
23475;DHT22;11910;52.086;21.066;2023-09-19T03:39:06;18.10;99.90
23475;DHT22;11910;52.086;21.066;2023-09-19T03:41:32;18.10;99.90
23475;DHT22;11910;52.086;21.066;2023-09-19T03:43:58;18.10;99.90
23475;DHT22;11910;52.086;21.066;2023-09-19T03:46:24;18.20;99.90
23475;DHT22;11910;52.086;21.066;2023-09-19T03:48:50;18.20;99.90
23475;DHT22;11910;52.086;21.066;2023-09-19T03:51:15;18.20;99.90
23475;DHT22;11910;52.086;21.066;2023-09-19T03:53:41;18.20;99.90
23475;DHT22;11910;52.086;21.066;2023-09-19T03:56:07;18.20;99.90
23475;DHT22;11910;52.086;21.066;2023-09-19T03:58:33;18.30;99.90
23475;DHT22;11910;52.086;21.066;2023-09-19T04:01:03;18.30;99.90
23475;DHT22;11910;52.086;21.066;2023-09-19T04:03:29;18.20;99.90
23475;DHT22;11910;52.086;21.066;2023-09-19T04:06:01;18.30;99.90
23475;DHT22;11910;52.086;21.066;2023-09-19T04:08:27;18.30;99.90
23475;DHT22;11910;52.086;21.066;2023-09-19T04:10:52;18.30;99.90
23475;DHT22;11910;52.086;21.066;2023-09-19T04:13:18;18.30;99.90
23475;DHT22;11910;52.086;21.066;2023-09-19T04:15:44;18.30;99.90
23475;DHT22;11910;52.086;21.066;2023-09-19T04:18:11;18.30;99.90
23475;DHT22;11910;52.086;21.066;2023-09-19T04:20:37;18.20;99.90
23475;DHT22;11910;52.086;21.066;2023-09-19T04:23:03;18.20;99.90
23475;DHT22;11910;52.086;21.066;2023-09-19T04:25:30;18.10;99.90
23475;DHT22;11910;52.086;21.066;2023-09-19T04:27:56;18.10;99.90
23475;DHT22;11910;52.086;21.066;2023-09-19T04:30:21;18.10;99.90
23475;DHT22;11910;52.086;21.066;2023-09-19T04:32:47;18.00;99.90
23475;DHT22;11910;52.086;21.066;2023-09-19T04:35:16;18.10;99.90
23475;DHT22;11910;52.086;21.066;2023-09-19T04:37:41;18.10;99.90
23475;DHT22;11910;52.086;21.066;2023-09-19T04:40:08;18.10;99.90
23475;DHT22;11910;52.086;21.066;2023-09-19T04:42:39;18.10;99.90
23475;DHT22;11910;52.086;21.066;2023-09-19T04:45:05;18.10;99.90
23475;DHT22;11910;52.086;21.066;2023-09-19T04:47:30;18.20;99.90
23475;DHT22;11910;52.086;21.066;2023-09-19T04:49:56;18.20;99.90
23475;DHT22;11910;52.086;21.066;2023-09-19T04:52:24;18.30;99.90
23475;DHT22;11910;52.086;21.066;2023-09-19T04:54:49;18.30;99.90
23475;DHT22;11910;52.086;21.066;2023-09-19T04:57:15;18.30;99.90
23475;DHT22;11910;52.086;21.066;2023-09-19T04:59:41;18.30;99.90
23475;DHT22;11910;52.086;21.066;2023-09-19T05:02:07;18.30;99.90
23475;DHT22;11910;52.086;21.066;2023-09-19T05:04:33;18.40;99.90
23475;DHT22;11910;52.086;21.066;2023-09-19T05:06:59;18.50;99.90
23475;DHT22;11910;52.086;21.066;2023-09-19T05:09:26;18.60;99.90
23475;DHT22;11910;52.086;21.066;2023-09-19T05:11:52;18.60;99.90
23475;DHT22;11910;52.086;21.066;2023-09-19T05:14:18;18.60;99.90
23475;DHT22;11910;52.086;21.066;2023-09-19T05:16:46;18.60;99.90
23475;DHT22;11910;52.086;21.066;2023-09-19T05:19:11;18.70;99.90
23475;DHT22;11910;52.086;21.066;2023-09-19T05:21:37;18.70;99.90
23475;DHT22;11910;52.086;21.066;2023-09-19T05:24:05;18.70;99.90
23475;DHT22;11910;52.086;21.066;2023-09-19T05:26:34;18.70;99.90
23475;DHT22;11910;52.086;21.066;2023-09-19T05:29:00;18.70;99.90
23475;DHT22;11910;52.086;21.066;2023-09-19T05:31:27;18.80;99.90
23475;DHT22;11910;52.086;21.066;2023-09-19T05:33:53;18.80;99.90
23475;DHT22;11910;52.086;21.066;2023-09-19T05:36:20;18.90;99.90
23475;DHT22;11910;52.086;21.066;2023-09-19T05:38:46;18.90;99.90
23475;DHT22;11910;52.086;21.066;2023-09-19T05:41:15;19.00;99.90
23475;DHT22;11910;52.086;21.066;2023-09-19T05:43:41;19.00;99.90
23475;DHT22;11910;52.086;21.066;2023-09-19T05:46:07;19.10;99.90
23475;DHT22;11910;52.086;21.066;2023-09-19T05:48:33;19.10;99.90
23475;DHT22;11910;52.086;21.066;2023-09-19T05:50:59;19.20;99.90
23475;DHT22;11910;52.086;21.066;2023-09-19T05:53:32;19.20;99.90
23475;DHT22;11910;52.086;21.066;2023-09-19T05:56:04;19.20;99.90
23475;DHT22;11910;52.086;21.066;2023-09-19T05:58:29;19.20;99.90
23475;DHT22;11910;52.086;21.066;2023-09-19T06:00:55;19.20;99.90
23475;DHT22;11910;52.086;21.066;2023-09-19T06:03:22;19.20;99.90
23475;DHT22;11910;52.086;21.066;2023-09-19T06:05:48;19.30;99.90
23475;DHT22;11910;52.086;21.066;2023-09-19T06:08:15;19.30;99.90
23475;DHT22;11910;52.086;21.066;2023-09-19T06:10:40;19.30;99.90
23475;DHT22;11910;52.086;21.066;2023-09-19T06:13:06;19.30;99.90
23475;DHT22;11910;52.086;21.066;2023-09-19T06:15:35;19.30;99.90
23475;DHT22;11910;52.086;21.066;2023-09-19T06:18:01;19.30;99.90
23475;DHT22;11910;52.086;21.066;2023-09-19T06:20:27;19.40;99.90
23475;DHT22;11910;52.086;21.066;2023-09-19T06:22:54;19.40;99.90
23475;DHT22;11910;52.086;21.066;2023-09-19T06:25:20;19.50;99.90
23475;DHT22;11910;52.086;21.066;2023-09-19T06:27:51;19.40;99.90
23475;DHT22;11910;52.086;21.066;2023-09-19T06:30:23;19.50;99.90
23475;DHT22;11910;52.086;21.066;2023-09-19T06:32:49;19.50;99.90
23475;DHT22;11910;52.086;21.066;2023-09-19T06:35:16;19.50;99.90
23475;DHT22;11910;52.086;21.066;2023-09-19T06:37:42;19.60;99.90
23475;DHT22;11910;52.086;21.066;2023-09-19T06:40:12;19.70;99.90
23475;DHT22;11910;52.086;21.066;2023-09-19T06:43:12;19.70;99.90
23475;DHT22;11910;52.086;21.066;2023-09-19T06:45:31;19.70;99.90
23475;DHT22;11910;52.086;21.066;2023-09-19T06:47:57;19.80;99.90
23475;DHT22;11910;52.086;21.066;2023-09-19T06:50:25;19.90;99.90
23475;DHT22;11910;52.086;21.066;2023-09-19T06:52:53;19.90;99.90
23475;DHT22;11910;52.086;21.066;2023-09-19T06:55:20;19.90;99.90
23475;DHT22;11910;52.086;21.066;2023-09-19T06:57:46;20.00;99.90
23475;DHT22;11910;52.086;21.066;2023-09-19T07:00:13;20.10;99.90
23475;DHT22;11910;52.086;21.066;2023-09-19T07:03:05;20.10;99.90
23475;DHT22;11910;52.086;21.066;2023-09-19T07:05:31;20.20;99.90
23475;DHT22;11910;52.086;21.066;2023-09-19T07:07:57;20.30;99.90
23475;DHT22;11910;52.086;21.066;2023-09-19T07:10:24;20.50;99.90
23475;DHT22;11910;52.086;21.066;2023-09-19T07:13:03;20.60;99.90
23475;DHT22;11910;52.086;21.066;2023-09-19T07:15:30;20.70;99.90
23475;DHT22;11910;52.086;21.066;2023-09-19T07:17:59;20.90;99.90
23475;DHT22;11910;52.086;21.066;2023-09-19T07:20:26;21.00;99.90
23475;DHT22;11910;52.086;21.066;2023-09-19T07:22:52;21.00;99.90
23475;DHT22;11910;52.086;21.066;2023-09-19T07:25:21;21.10;99.90
23475;DHT22;11910;52.086;21.066;2023-09-19T07:27:46;21.10;99.90
23475;DHT22;11910;52.086;21.066;2023-09-19T07:30:12;21.10;99.90
23475;DHT22;11910;52.086;21.066;2023-09-19T07:32:38;21.20;99.90
23475;DHT22;11910;52.086;21.066;2023-09-19T07:35:06;21.30;99.90
23475;DHT22;11910;52.086;21.066;2023-09-19T07:37:32;21.40;99.90
23475;DHT22;11910;52.086;21.066;2023-09-19T07:40:07;21.50;99.90
23475;DHT22;11910;52.086;21.066;2023-09-19T07:42:37;21.70;99.90
23475;DHT22;11910;52.086;21.066;2023-09-19T07:45:07;21.80;99.90
23475;DHT22;11910;52.086;21.066;2023-09-19T07:47:33;21.80;99.90
23475;DHT22;11910;52.086;21.066;2023-09-19T07:49:59;21.90;99.90
23475;DHT22;11910;52.086;21.066;2023-09-19T07:52:27;22.00;99.90
23475;DHT22;11910;52.086;21.066;2023-09-19T07:54:53;22.00;99.90
23475;DHT22;11910;52.086;21.066;2023-09-19T07:57:19;22.00;99.90
23475;DHT22;11910;52.086;21.066;2023-09-19T07:59:45;22.00;99.90
23475;DHT22;11910;52.086;21.066;2023-09-19T08:02:11;22.00;99.90
23475;DHT22;11910;52.086;21.066;2023-09-19T08:04:45;22.00;99.90
23475;DHT22;11910;52.086;21.066;2023-09-19T08:07:14;22.10;99.90
23475;DHT22;11910;52.086;21.066;2023-09-19T08:09:40;22.10;99.90
23475;DHT22;11910;52.086;21.066;2023-09-19T08:12:06;22.10;99.90
23475;DHT22;11910;52.086;21.066;2023-09-19T08:14:36;22.10;99.90
23475;DHT22;11910;52.086;21.066;2023-09-19T08:17:01;22.10;99.90
23475;DHT22;11910;52.086;21.066;2023-09-19T08:19:27;22.20;99.90
23475;DHT22;11910;52.086;21.066;2023-09-19T08:21:57;22.20;99.90
23475;DHT22;11910;52.086;21.066;2023-09-19T08:24:30;22.30;99.90
23475;DHT22;11910;52.086;21.066;2023-09-19T08:26:56;22.40;99.90
23475;DHT22;11910;52.086;21.066;2023-09-19T08:29:23;22.40;99.90
23475;DHT22;11910;52.086;21.066;2023-09-19T08:31:56;22.30;99.90
23475;DHT22;11910;52.086;21.066;2023-09-19T08:34:23;22.30;99.90
23475;DHT22;11910;52.086;21.066;2023-09-19T08:36:53;22.20;99.90
23475;DHT22;11910;52.086;21.066;2023-09-19T08:39:25;22.10;99.90
23475;DHT22;11910;52.086;21.066;2023-09-19T08:42:01;22.10;99.90
23475;DHT22;11910;52.086;21.066;2023-09-19T08:44:27;22.10;99.90
23475;DHT22;11910;52.086;21.066;2023-09-19T08:47:09;22.00;99.90
23475;DHT22;11910;52.086;21.066;2023-09-19T08:52:07;22.00;99.90
23475;DHT22;11910;52.086;21.066;2023-09-19T08:54:37;22.00;99.90
23475;DHT22;11910;52.086;21.066;2023-09-19T08:57:07;22.00;99.90
23475;DHT22;11910;52.086;21.066;2023-09-19T08:59:41;22.00;99.90
23475;DHT22;11910;52.086;21.066;2023-09-19T09:02:16;22.10;99.90
23475;DHT22;11910;52.086;21.066;2023-09-19T09:04:45;22.10;99.90
23475;DHT22;11910;52.086;21.066;2023-09-19T09:07:11;22.10;99.90
23475;DHT22;11910;52.086;21.066;2023-09-19T09:09:38;22.10;99.90
23475;DHT22;11910;52.086;21.066;2023-09-19T09:12:12;22.10;99.90
23475;DHT22;11910;52.086;21.066;2023-09-19T09:14:45;22.20;99.90
23475;DHT22;11910;52.086;21.066;2023-09-19T09:17:15;22.20;99.90
23475;DHT22;11910;52.086;21.066;2023-09-19T09:19:43;22.30;99.90
23475;DHT22;11910;52.086;21.066;2023-09-19T09:22:10;22.20;99.90
23475;DHT22;11910;52.086;21.066;2023-09-19T09:24:37;22.20;99.90
23475;DHT22;11910;52.086;21.066;2023-09-19T09:27:05;22.10;99.90
23475;DHT22;11910;52.086;21.066;2023-09-19T09:29:42;22.10;99.90
23475;DHT22;11910;52.086;21.066;2023-09-19T09:34:50;22.10;99.90
23475;DHT22;11910;52.086;21.066;2023-09-19T09:37:17;22.10;99.90
23475;DHT22;11910;52.086;21.066;2023-09-19T09:39:51;22.00;99.90
23475;DHT22;11910;52.086;21.066;2023-09-19T09:42:36;22.00;99.90
23475;DHT22;11910;52.086;21.066;2023-09-19T09:45:19;21.80;99.90
23475;DHT22;11910;52.086;21.066;2023-09-19T09:48:31;21.70;99.90
23475;DHT22;11910;52.086;21.066;2023-09-19T09:50:57;21.60;99.90
23475;DHT22;11910;52.086;21.066;2023-09-19T09:53:29;21.50;99.90
23475;DHT22;11910;52.086;21.066;2023-09-19T09:56:03;21.40;99.90
23475;DHT22;11910;52.086;21.066;2023-09-19T09:58:38;21.30;99.90
23475;DHT22;11910;52.086;21.066;2023-09-19T10:01:14;21.10;99.90
23475;DHT22;11910;52.086;21.066;2023-09-19T10:03:43;21.00;99.90
23475;DHT22;11910;52.086;21.066;2023-09-19T10:06:11;20.90;99.90
23475;DHT22;11910;52.086;21.066;2023-09-19T10:12:03;20.70;99.90
23475;DHT22;11910;52.086;21.066;2023-09-19T10:14:34;20.50;99.90
23475;DHT22;11910;52.086;21.066;2023-09-19T10:17:02;20.50;99.90
23475;DHT22;11910;52.086;21.066;2023-09-19T10:22:04;20.40;99.90
23475;DHT22;11910;52.086;21.066;2023-09-19T10:24:35;20.30;99.90
23475;DHT22;11910;52.086;21.066;2023-09-19T10:27:04;20.30;99.90
23475;DHT22;11910;52.086;21.066;2023-09-19T10:29:34;20.30;99.90
23475;DHT22;11910;52.086;21.066;2023-09-19T10:32:01;20.30;99.90
23475;DHT22;11910;52.086;21.066;2023-09-19T10:34:34;20.30;99.90
23475;DHT22;11910;52.086;21.066;2023-09-19T10:37:02;20.40;99.90
23475;DHT22;11910;52.086;21.066;2023-09-19T10:39:32;20.30;99.90
23475;DHT22;11910;52.086;21.066;2023-09-19T10:42:02;20.30;99.90
23475;DHT22;11910;52.086;21.066;2023-09-19T10:44:32;20.30;99.90
23475;DHT22;11910;52.086;21.066;2023-09-19T10:46:57;20.30;99.90
23475;DHT22;11910;52.086;21.066;2023-09-19T10:49:23;20.30;99.90
23475;DHT22;11910;52.086;21.066;2023-09-19T10:51:53;20.30;99.90
23475;DHT22;11910;52.086;21.066;2023-09-19T10:54:23;20.30;99.90
23475;DHT22;11910;52.086;21.066;2023-09-19T10:56:52;20.30;99.90
23475;DHT22;11910;52.086;21.066;2023-09-19T10:59:20;20.30;99.90
23475;DHT22;11910;52.086;21.066;2023-09-19T11:01:56;20.30;99.90
23475;DHT22;11910;52.086;21.066;2023-09-19T11:04:25;20.30;99.90
23475;DHT22;11910;52.086;21.066;2023-09-19T11:07:11;20.40;99.90
23475;DHT22;11910;52.086;21.066;2023-09-19T11:12:56;20.40;99.90
23475;DHT22;11910;52.086;21.066;2023-09-19T11:15:01;20.40;99.90
23475;DHT22;11910;52.086;21.066;2023-09-19T11:17:37;20.40;99.90
23475;DHT22;11910;52.086;21.066;2023-09-19T11:36:00;20.50;99.90
23475;DHT22;11910;52.086;21.066;2023-09-19T11:41:43;20.50;99.90
23475;DHT22;11910;52.086;21.066;2023-09-19T11:49:31;20.70;99.90
23475;DHT22;11910;52.086;21.066;2023-09-19T11:51:59;20.60;99.90
23475;DHT22;11910;52.086;21.066;2023-09-19T11:54:27;20.60;99.90
23475;DHT22;11910;52.086;21.066;2023-09-19T11:56:57;20.60;99.90
23475;DHT22;11910;52.086;21.066;2023-09-19T11:59:28;20.70;99.90
23475;DHT22;11910;52.086;21.066;2023-09-19T12:02:00;20.70;99.90
23475;DHT22;11910;52.086;21.066;2023-09-19T12:04:42;20.70;99.90
23475;DHT22;11910;52.086;21.066;2023-09-19T12:07:15;20.70;99.90
23475;DHT22;11910;52.086;21.066;2023-09-19T12:10:02;20.70;99.90
23475;DHT22;11910;52.086;21.066;2023-09-19T12:12:28;20.70;99.90
23475;DHT22;11910;52.086;21.066;2023-09-19T12:14:56;20.70;99.90
23475;DHT22;11910;52.086;21.066;2023-09-19T12:17:39;20.70;99.90
23475;DHT22;11910;52.086;21.066;2023-09-19T12:20:06;20.60;99.90
23475;DHT22;11910;52.086;21.066;2023-09-19T12:22:48;20.60;99.90
23475;DHT22;11910;52.086;21.066;2023-09-19T12:25:15;20.50;99.90
23475;DHT22;11910;52.086;21.066;2023-09-19T12:27:47;20.50;99.90
23475;DHT22;11910;52.086;21.066;2023-09-19T12:30:14;20.50;99.90
23475;DHT22;11910;52.086;21.066;2023-09-19T12:32:40;20.50;99.90
23475;DHT22;11910;52.086;21.066;2023-09-19T12:35:07;20.40;99.90
23475;DHT22;11910;52.086;21.066;2023-09-19T12:37:36;20.40;99.90
23475;DHT22;11910;52.086;21.066;2023-09-19T12:40:06;20.50;99.90
23475;DHT22;11910;52.086;21.066;2023-09-19T12:42:43;20.40;99.90
23475;DHT22;11910;52.086;21.066;2023-09-19T12:45:10;20.40;99.90
23475;DHT22;11910;52.086;21.066;2023-09-19T12:47:39;20.40;99.90
23475;DHT22;11910;52.086;21.066;2023-09-19T12:50:07;20.40;99.90
23475;DHT22;11910;52.086;21.066;2023-09-19T12:52:41;20.40;99.90
23475;DHT22;11910;52.086;21.066;2023-09-19T12:55:07;20.40;99.90
23475;DHT22;11910;52.086;21.066;2023-09-19T12:57:35;20.50;99.90
23475;DHT22;11910;52.086;21.066;2023-09-19T13:00:02;20.40;99.90
23475;DHT22;11910;52.086;21.066;2023-09-19T13:02:28;20.50;99.90
23475;DHT22;11910;52.086;21.066;2023-09-19T13:04:54;20.40;99.90
23475;DHT22;11910;52.086;21.066;2023-09-19T13:07:43;20.50;99.90
23475;DHT22;11910;52.086;21.066;2023-09-19T13:10:09;20.50;99.90
23475;DHT22;11910;52.086;21.066;2023-09-19T13:12:37;20.50;99.90
23475;DHT22;11910;52.086;21.066;2023-09-19T13:15:14;20.60;99.90
23475;DHT22;11910;52.086;21.066;2023-09-19T13:17:48;20.60;99.90
23475;DHT22;11910;52.086;21.066;2023-09-19T13:20:26;20.60;99.90
23475;DHT22;11910;52.086;21.066;2023-09-19T13:22:58;20.60;99.90
23475;DHT22;11910;52.086;21.066;2023-09-19T13:25:26;20.70;99.90
23475;DHT22;11910;52.086;21.066;2023-09-19T13:27:56;20.70;99.90
23475;DHT22;11910;52.086;21.066;2023-09-19T13:30:31;20.70;99.90
23475;DHT22;11910;52.086;21.066;2023-09-19T13:33:08;20.70;99.90
23475;DHT22;11910;52.086;21.066;2023-09-19T13:35:35;20.80;99.90
23475;DHT22;11910;52.086;21.066;2023-09-19T13:38:02;20.80;99.90
23475;DHT22;11910;52.086;21.066;2023-09-19T13:40:27;20.80;99.90
23475;DHT22;11910;52.086;21.066;2023-09-19T13:42:56;20.80;99.90
23475;DHT22;11910;52.086;21.066;2023-09-19T13:45:22;20.80;99.90
23475;DHT22;11910;52.086;21.066;2023-09-19T13:47:50;20.80;99.90
23475;DHT22;11910;52.086;21.066;2023-09-19T13:50:15;20.80;99.90
23475;DHT22;11910;52.086;21.066;2023-09-19T13:52:42;20.80;99.90
23475;DHT22;11910;52.086;21.066;2023-09-19T13:55:08;20.80;99.90
23475;DHT22;11910;52.086;21.066;2023-09-19T13:57:34;20.80;99.90
23475;DHT22;11910;52.086;21.066;2023-09-19T13:59:59;20.80;99.90
23475;DHT22;11910;52.086;21.066;2023-09-19T14:02:25;20.80;99.90
23475;DHT22;11910;52.086;21.066;2023-09-19T14:04:51;20.90;99.90
23475;DHT22;11910;52.086;21.066;2023-09-19T14:07:17;20.90;99.90
23475;DHT22;11910;52.086;21.066;2023-09-19T14:09:44;20.80;99.90
23475;DHT22;11910;52.086;21.066;2023-09-19T14:12:09;20.90;99.90
23475;DHT22;11910;52.086;21.066;2023-09-19T14:14:35;20.80;99.90
23475;DHT22;11910;52.086;21.066;2023-09-19T14:17:03;20.90;99.90
23475;DHT22;11910;52.086;21.066;2023-09-19T14:19:28;20.90;99.90
23475;DHT22;11910;52.086;21.066;2023-09-19T14:21:54;20.80;99.90
23475;DHT22;11910;52.086;21.066;2023-09-19T14:24:21;20.90;99.90
23475;DHT22;11910;52.086;21.066;2023-09-19T14:26:47;20.90;99.90
23475;DHT22;11910;52.086;21.066;2023-09-19T14:29:15;20.80;99.90
23475;DHT22;11910;52.086;21.066;2023-09-19T14:31:41;20.90;99.90
23475;DHT22;11910;52.086;21.066;2023-09-19T14:34:07;20.80;99.90
23475;DHT22;11910;52.086;21.066;2023-09-19T14:36:36;20.80;99.90
23475;DHT22;11910;52.086;21.066;2023-09-19T14:39:02;20.80;99.90
23475;DHT22;11910;52.086;21.066;2023-09-19T14:41:27;20.70;99.90
23475;DHT22;11910;52.086;21.066;2023-09-19T14:43:53;20.70;99.90
23475;DHT22;11910;52.086;21.066;2023-09-19T14:46:20;20.70;99.90
23475;DHT22;11910;52.086;21.066;2023-09-19T14:48:46;20.60;99.90
23475;DHT22;11910;52.086;21.066;2023-09-19T14:51:14;20.60;99.90
23475;DHT22;11910;52.086;21.066;2023-09-19T14:53:41;20.60;99.90
23475;DHT22;11910;52.086;21.066;2023-09-19T14:56:10;20.60;99.90
23475;DHT22;11910;52.086;21.066;2023-09-19T14:58:36;20.50;99.90
23475;DHT22;11910;52.086;21.066;2023-09-19T15:01:08;20.50;99.90
23475;DHT22;11910;52.086;21.066;2023-09-19T15:03:35;20.50;99.90
23475;DHT22;11910;52.086;21.066;2023-09-19T15:06:05;20.50;99.90
23475;DHT22;11910;52.086;21.066;2023-09-19T15:08:32;20.50;99.90
23475;DHT22;11910;52.086;21.066;2023-09-19T15:11:02;20.50;99.90
23475;DHT22;11910;52.086;21.066;2023-09-19T15:13:32;20.50;99.90
23475;DHT22;11910;52.086;21.066;2023-09-19T15:16:02;20.50;99.90
23475;DHT22;11910;52.086;21.066;2023-09-19T15:18:29;20.50;99.90
23475;DHT22;11910;52.086;21.066;2023-09-19T15:21:00;20.50;99.90
23475;DHT22;11910;52.086;21.066;2023-09-19T15:23:26;20.50;99.90
23475;DHT22;11910;52.086;21.066;2023-09-19T15:25:52;20.50;99.90
23475;DHT22;11910;52.086;21.066;2023-09-19T15:28:19;20.50;99.90
23475;DHT22;11910;52.086;21.066;2023-09-19T15:30:49;20.40;99.90
23475;DHT22;11910;52.086;21.066;2023-09-19T15:33:14;20.40;99.90
23475;DHT22;11910;52.086;21.066;2023-09-19T15:35:41;20.40;99.90
23475;DHT22;11910;52.086;21.066;2023-09-19T15:38:07;20.40;99.90
23475;DHT22;11910;52.086;21.066;2023-09-19T15:40:33;20.40;99.90
23475;DHT22;11910;52.086;21.066;2023-09-19T15:42:59;20.40;99.90
23475;DHT22;11910;52.086;21.066;2023-09-19T15:45:25;20.40;99.90
23475;DHT22;11910;52.086;21.066;2023-09-19T15:47:52;20.40;99.90
23475;DHT22;11910;52.086;21.066;2023-09-19T15:50:18;20.40;99.90
23475;DHT22;11910;52.086;21.066;2023-09-19T15:52:44;20.40;99.90
23475;DHT22;11910;52.086;21.066;2023-09-19T15:55:10;20.40;99.90
23475;DHT22;11910;52.086;21.066;2023-09-19T15:57:37;20.40;99.90
23475;DHT22;11910;52.086;21.066;2023-09-19T16:00:03;20.30;99.90
23475;DHT22;11910;52.086;21.066;2023-09-19T16:02:35;20.40;99.90
23475;DHT22;11910;52.086;21.066;2023-09-19T16:05:01;20.30;99.90
23475;DHT22;11910;52.086;21.066;2023-09-19T16:07:32;20.30;99.90
23475;DHT22;11910;52.086;21.066;2023-09-19T16:09:58;20.30;99.90
23475;DHT22;11910;52.086;21.066;2023-09-19T16:12:25;20.30;99.90
23475;DHT22;11910;52.086;21.066;2023-09-19T16:14:51;20.20;99.90
23475;DHT22;11910;52.086;21.066;2023-09-19T16:17:17;20.30;99.90